createdAt,value
2019-04-16T00:02:11.713Z,52.60
2019-04-16T00:05:21.530Z,47.50
2019-04-16T00:08:35.606Z,41.33
2019-04-16T00:11:56.336Z,45.30
2019-04-16T00:15:00.033Z,45.23
2019-04-16T00:18:03.572Z,39.03
2019-04-16T00:21:23.360Z,37.47
2019-04-16T00:24:32.598Z,41.13
2019-04-16T00:27:36.161Z,42.07
2019-04-16T00:30:39.719Z,42.60
2019-04-16T00:33:43.629Z,39.97
2019-04-16T00:36:48.790Z,34.87
2019-04-16T00:39:55.523Z,36.37
2019-04-16T00:42:57.743Z,32.87
2019-04-16T00:46:02.015Z,30.43
2019-04-16T00:49:05.570Z,37.63
2019-04-16T00:52:09.130Z,32.93
2019-04-16T00:55:14.578Z,30.50
2019-04-16T00:58:19.703Z,35.17
2019-04-16T01:01:23.694Z,28.30
2019-04-16T01:04:27.264Z,28.63
2019-04-16T01:07:30.828Z,30.20
2019-04-16T01:10:34.855Z,27.30
2019-04-16T01:13:38.748Z,27.13
2019-04-16T01:16:42.322Z,27.43
2019-04-16T01:19:45.889Z,30.20
2019-04-16T01:22:49.463Z,29.47
2019-04-16T01:25:55.672Z,24.23
2019-04-16T01:29:06.723Z,22.67
2019-04-16T01:32:21.781Z,23.37
2019-04-16T01:35:51.744Z,23.07
2019-04-16T01:39:14.731Z,25.70
2019-04-16T01:42:04.307Z,25.77
2019-04-16T01:45:08.418Z,21.10
2019-04-16T01:48:11.987Z,22.93
2019-04-16T01:51:16.244Z,21.57
2019-04-16T01:54:22.506Z,19.33
2019-04-16T01:57:25.205Z,19.57
2019-04-16T02:00:28.766Z,19.97
2019-04-16T02:03:32.332Z,20.50
2019-04-16T02:06:35.883Z,18.53
2019-04-16T02:09:39.448Z,16.97
2019-04-16T02:12:43.856Z,18.77
2019-04-16T02:15:50.575Z,17.30
2019-04-16T02:18:53.674Z,17.70
2019-04-16T02:21:57.232Z,18.00
2019-04-16T02:25:00.825Z,17.43
2019-04-16T02:28:04.990Z,18.40
2019-04-16T02:31:12.868Z,17.33
2019-04-16T02:34:13.938Z,15.60
2019-04-16T02:37:17.525Z,17.83
2019-04-16T02:40:21.332Z,16.37
2019-04-16T02:43:24.896Z,17.93
2019-04-16T02:46:32.076Z,14.27
2019-04-16T02:49:33.806Z,17.33
2019-04-16T02:52:52.640Z,16.33
2019-04-16T02:56:19.268Z,14.00
2019-04-16T02:59:29.289Z,15.93
2019-04-16T03:02:53.675Z,13.33
2019-04-16T03:06:00.724Z,14.70
2019-04-16T03:09:02.075Z,13.67
2019-04-16T03:12:05.720Z,16.50
2019-04-16T03:15:09.426Z,14.63
2019-04-16T03:18:15.236Z,14.23
2019-04-16T03:21:19.097Z,14.90
2019-04-16T03:24:22.661Z,14.47
2019-04-16T03:27:26.311Z,13.67
2019-04-16T03:30:29.904Z,12.00
2019-04-16T03:33:33.531Z,11.90
2019-04-16T03:36:37.379Z,12.30
2019-04-16T03:39:43.818Z,11.20
2019-04-16T03:42:46.532Z,11.60
2019-04-16T03:45:50.106Z,13.40
2019-04-16T03:48:56.122Z,12.07
2019-04-16T03:51:58.977Z,11.30
2019-04-16T03:55:02.869Z,10.90
2019-04-16T03:58:07.314Z,9.90
2019-04-16T04:01:14.212Z,11.13
2019-04-16T04:04:16.677Z,10.30
2019-04-16T04:07:20.259Z,10.87
2019-04-16T04:10:30.798Z,14.77
2019-04-16T04:13:29.128Z,49.45
2019-04-16T04:16:33.548Z,43.87
2019-04-16T04:19:38.368Z,41.93
2019-04-16T04:22:42.294Z,42.37
2019-04-16T04:25:45.872Z,35.33
2019-04-16T04:28:51.622Z,309.63
2019-04-16T04:31:55.403Z,384.27
2019-04-16T04:34:58.990Z,232.77
2019-04-16T04:38:04.075Z,250.43
2019-04-16T04:41:08.600Z,865.97
2019-04-16T04:44:12.194Z,779.33
2019-04-16T04:47:19.293Z,210.67
2019-04-16T04:50:23.594Z,226.63
2019-04-16T04:53:27.187Z,139.83
2019-04-16T04:56:30.764Z,109.53
2019-04-16T04:59:36.700Z,108.53
2019-04-16T05:02:39.946Z,80.30
2019-04-16T05:05:47.711Z,100.13
2019-04-16T05:08:51.622Z,178.07
2019-04-16T05:11:55.204Z,168.60
2019-04-16T05:14:58.967Z,157.90
2019-04-16T05:18:05.648Z,154.80
2019-04-16T05:21:08.173Z,145.63
2019-04-16T05:24:11.751Z,139.13
2019-04-16T05:27:15.609Z,137.90
2019-04-16T05:30:21.104Z,132.37
2019-04-16T05:33:24.553Z,136.03
2019-04-16T05:36:28.135Z,126.10
2019-04-16T05:39:31.830Z,120.47
2019-04-16T05:42:35.395Z,121.53
2019-04-16T05:45:38.979Z,121.43
2019-04-16T05:48:42.585Z,114.60
2019-04-16T05:51:46.157Z,112.17
2019-04-16T05:54:56.141Z,105.13
2019-04-16T05:57:59.736Z,99.13
2019-04-16T06:01:21.365Z,105.67
2019-04-16T06:04:25.726Z,96.97
2019-04-16T06:07:29.798Z,102.93
2019-04-16T06:10:33.370Z,95.70
2019-04-16T06:13:55.969Z,90.50
2019-04-16T06:17:10.455Z,89.10
2019-04-16T06:20:33.093Z,80.27
2019-04-16T06:24:03.419Z,86.37
2019-04-16T06:27:12.766Z,83.43
2019-04-16T06:30:48.082Z,80.03
2019-04-16T06:34:10.684Z,77.90
2019-04-16T06:37:33.308Z,77.23
2019-04-16T06:40:48.491Z,72.40
2019-04-16T06:43:58.304Z,71.27
2019-04-16T06:47:29.677Z,72.93
2019-04-16T06:50:41.676Z,63.43
2019-04-16T06:54:03.259Z,68.93
2019-04-16T06:57:23.534Z,66.80
2019-04-16T07:00:39.296Z,60.80
2019-04-16T07:04:01.150Z,63.90
2019-04-16T07:07:22.602Z,61.10
2019-04-16T07:10:43.780Z,60.23
2019-04-16T07:13:35.471Z,56.07
2019-04-16T07:16:39.081Z,55.07
2019-04-16T07:19:42.832Z,54.93
2019-04-16T07:22:46.789Z,56.73
2019-04-16T07:25:50.430Z,56.73
2019-04-16T07:29:00.088Z,55.40
2019-04-16T07:32:21.808Z,59.73
2019-04-16T07:35:38.002Z,260.67
2019-04-16T07:38:59.666Z,197.00
2019-04-16T07:42:22.159Z,233.87
2019-04-16T07:45:36.250Z,214.63
2019-04-16T07:48:57.758Z,188.60
2019-04-16T07:52:12.444Z,177.03
2019-04-16T07:55:27.356Z,173.30
2019-04-16T07:58:31.461Z,164.03
2019-04-16T08:01:35.280Z,152.80
2019-04-16T08:04:38.858Z,145.30
2019-04-16T08:07:42.429Z,144.17
2019-04-16T08:10:46.018Z,137.93
2019-04-16T08:13:49.601Z,131.73
2019-04-16T08:16:53.183Z,131.50
2019-04-16T08:19:56.914Z,130.33
2019-04-16T08:23:03.425Z,125.63
2019-04-16T08:26:11.380Z,121.40
2019-04-16T08:29:12.598Z,122.63
2019-04-16T08:32:16.993Z,117.63
2019-04-16T08:35:20.709Z,113.83
2019-04-16T08:38:26.060Z,107.73
2019-04-16T08:41:29.739Z,110.23
2019-04-16T08:44:35.780Z,104.17
2019-04-16T08:47:41.873Z,101.17
2019-04-16T08:50:49.026Z,103.80
2019-04-16T08:53:51.174Z,97.10
2019-04-16T08:56:55.122Z,96.73
2019-04-16T08:59:59.242Z,93.40
2019-04-16T09:03:02.862Z,88.53
2019-04-16T09:06:06.438Z,90.70
2019-04-16T09:09:33.296Z,91.17
2019-04-16T09:12:41.352Z,83.07
2019-04-16T09:15:42.244Z,86.07
2019-04-16T09:18:50.791Z,84.93
2019-04-16T09:21:54.368Z,85.23
2019-04-16T09:25:02.775Z,80.10
2019-04-16T09:28:24.493Z,76.50
2019-04-16T09:31:37.894Z,76.57
2019-04-16T09:35:09.654Z,76.30
2019-04-16T09:38:27.742Z,75.07
2019-04-16T09:41:34.103Z,68.33
2019-04-16T09:44:38.017Z,72.07
2019-04-16T09:47:41.620Z,70.73
2019-04-16T09:50:47.862Z,67.93
2019-04-16T09:53:50.509Z,65.37
2019-04-16T09:56:56.807Z,66.30
2019-04-16T10:00:00.849Z,65.43
2019-04-16T10:03:19.780Z,59.67
2019-04-16T10:06:23.372Z,57.20
2019-04-16T10:09:26.934Z,59.73
2019-04-16T10:12:30.544Z,57.67
2019-04-16T10:15:34.206Z,55.27
2019-04-16T10:18:37.752Z,54.47
2019-04-16T10:21:41.319Z,57.30
2019-04-16T10:25:00.490Z,55.43
2019-04-16T10:28:12.658Z,49.50
2019-04-16T10:31:18.065Z,55.00
2019-04-16T10:34:21.651Z,51.43
2019-04-16T10:37:25.230Z,52.33
2019-04-16T10:40:34.484Z,47.07
2019-04-16T10:43:55.773Z,47.07
2019-04-16T10:47:16.677Z,47.60
2019-04-16T10:50:38.201Z,45.50
2019-04-16T10:54:01.694Z,43.57
2019-04-16T10:57:42.625Z,43.83
2019-04-16T11:00:53.237Z,41.23
2019-04-16T11:04:09.784Z,42.77
2019-04-16T11:07:17.212Z,41.37
2019-04-16T11:10:20.859Z,39.30
2019-04-16T11:13:28.995Z,39.63
2019-04-16T11:16:35.834Z,39.27
2019-04-16T11:19:37.906Z,42.10
2019-04-16T11:22:41.522Z,35.83
2019-04-16T11:25:45.107Z,39.10
2019-04-16T11:28:48.786Z,36.33
2019-04-16T11:31:52.404Z,36.30
2019-04-16T11:34:55.989Z,36.10
2019-04-16T11:37:59.560Z,34.40
2019-04-16T11:41:03.135Z,34.00
2019-04-16T11:44:15.121Z,33.30
2019-04-16T11:47:12.440Z,34.43
2019-04-16T11:50:16.206Z,31.27
2019-04-16T11:53:20.233Z,30.83
2019-04-16T11:56:23.878Z,29.63
2019-04-16T11:59:27.430Z,31.03
2019-04-16T12:02:38.642Z,28.33
2019-04-16T12:05:58.119Z,29.97
2019-04-16T12:09:22.310Z,28.50
2019-04-16T12:12:35.487Z,28.17
2019-04-16T12:16:01.188Z,27.53
2019-04-16T12:19:35.728Z,27.77
2019-04-16T12:22:46.210Z,26.90
2019-04-16T12:26:11.941Z,24.93
2019-04-16T12:29:33.286Z,25.73
2019-04-16T12:32:58.911Z,24.80
2019-04-16T12:36:20.865Z,23.87
2019-04-16T12:39:35.852Z,22.97
2019-04-16T12:42:57.811Z,23.40
2019-04-16T12:46:19.192Z,23.90
2019-04-16T12:49:40.883Z,23.77
2019-04-16T12:52:58.271Z,21.03
2019-04-16T12:56:19.893Z,21.07
2019-04-16T12:59:27.815Z,21.80
2019-04-16T13:02:44.844Z,21.00
2019-04-16T13:06:13.724Z,20.37
2019-04-16T13:09:35.713Z,21.13
2019-04-16T13:12:57.266Z,20.07
2019-04-16T13:16:16.355Z,18.87
2019-04-16T13:19:37.928Z,18.87
2019-04-16T13:22:45.667Z,18.80
2019-04-16T13:26:00.648Z,19.43
2019-04-16T13:29:07.747Z,18.33
2019-04-16T13:32:11.545Z,17.27
2019-04-16T13:35:15.175Z,15.43
2019-04-16T13:38:20.855Z,18.50
2019-04-16T13:41:27.046Z,16.90
2019-04-16T13:44:33.920Z,15.90
2019-04-16T13:47:46.114Z,16.93
2019-04-16T13:50:52.411Z,16.43
2019-04-16T13:54:14.037Z,15.23
2019-04-16T13:57:19.596Z,17.13
2019-04-16T14:00:29.315Z,15.20
2019-04-16T14:03:32.934Z,16.60
2019-04-16T14:06:36.520Z,16.77
2019-04-16T14:09:40.166Z,13.73
2019-04-16T14:12:43.767Z,13.90
2019-04-16T14:15:47.350Z,14.13
2019-04-16T14:18:50.954Z,12.83
2019-04-16T14:21:54.879Z,14.20
2019-04-16T14:24:58.463Z,13.97
2019-04-16T14:28:03.651Z,13.60
2019-04-16T14:31:07.574Z,13.17
2019-04-16T14:34:24.588Z,12.93
2019-04-16T14:37:28.211Z,13.17
2019-04-16T14:40:32.469Z,12.20
2019-04-16T14:43:39.011Z,13.13
2019-04-16T14:46:42.599Z,14.47
2019-04-16T14:49:47.762Z,12.10
2019-04-16T14:52:51.820Z,13.20
2019-04-16T14:56:01.734Z,12.77
2019-04-16T14:59:26.653Z,12.77
2019-04-16T15:02:38.315Z,11.70
2019-04-16T15:05:49.029Z,12.33
2019-04-16T15:09:14.240Z,12.87
2019-04-16T15:12:36.346Z,11.03
2019-04-16T15:15:44.079Z,10.87
2019-04-16T15:19:05.447Z,10.97
2019-04-16T15:22:28.138Z,9.77
2019-04-16T15:25:41.897Z,10.93
2019-04-16T15:28:53.279Z,10.97
2019-04-16T15:32:22.286Z,10.87
2019-04-16T15:35:46.782Z,11.10
2019-04-16T15:39:02.944Z,13.07
2019-04-16T15:42:17.449Z,13.53
2019-04-16T15:45:47.686Z,110.93
2019-04-16T15:49:19.466Z,17.50
2019-04-16T15:52:46.898Z,15.13
2019-04-16T15:55:55.615Z,17.33
2019-04-16T15:59:14.014Z,18.27
2019-04-16T16:02:36.971Z,14.07
2019-04-16T16:05:49.036Z,12.57
2019-04-16T16:09:20.950Z,14.90
2019-04-16T16:12:26.794Z,13.03
2019-04-16T16:15:30.443Z,12.40
2019-04-16T16:18:35.741Z,26.10
2019-04-16T16:21:39.509Z,27.37
2019-04-16T16:24:43.479Z,22.70
2019-04-16T16:27:47.403Z,17.13
2019-04-16T16:30:51.003Z,16.97
2019-04-16T16:34:09.670Z,12.53
2019-04-16T16:37:38.510Z,14.90
2019-04-16T16:40:42.060Z,14.10
2019-04-16T16:43:53.322Z,22.87
2019-04-16T16:47:39.846Z,9.80
2019-04-16T16:50:58.229Z,12.90
2019-04-16T16:54:27.412Z,10.07
2019-04-16T16:57:40.394Z,19.33
2019-04-16T17:01:13.896Z,10.83
2019-04-16T17:04:42.522Z,12.73
2019-04-16T17:07:46.167Z,11.33
2019-04-16T17:10:49.756Z,14.87
2019-04-16T17:13:53.823Z,10.67
2019-04-16T17:17:11.921Z,12.13
2019-04-16T17:20:02.762Z,14.20
2019-04-16T17:23:06.521Z,10.27
2019-04-16T17:26:10.093Z,14.90
2019-04-16T17:29:13.730Z,11.60
2019-04-16T17:32:17.377Z,11.27
2019-04-16T17:35:20.977Z,8.73
2019-04-16T17:38:24.581Z,14.47
2019-04-16T17:41:33.330Z,12.27
2019-04-16T17:45:08.292Z,11.37
2019-04-16T17:48:21.727Z,9.93
2019-04-16T17:51:40.733Z,10.40
2019-04-16T17:54:52.702Z,12.30
2019-04-16T17:57:59.249Z,38.73
2019-04-16T18:01:31.640Z,15.10
2019-04-16T18:04:58.841Z,13.70
2019-04-16T18:08:20.193Z,11.85
2019-04-16T18:11:27.988Z,22.20
2019-04-16T18:14:39.705Z,20.47
2019-04-16T18:17:54.456Z,20.10
2019-04-16T18:21:15.894Z,12.43
2019-04-16T18:24:35.591Z,53.97
2019-04-16T18:27:50.647Z,13.50
2019-04-16T18:30:59.353Z,15.60
2019-04-16T18:34:21.749Z,17.03
2019-04-16T18:37:49.680Z,15.40
2019-04-16T18:41:10.243Z,9.37
2019-04-16T18:44:31.625Z,11.50
2019-04-16T18:48:04.542Z,10.63
2019-04-16T18:51:02.913Z,8.37
2019-04-16T18:54:06.824Z,11.83
2019-04-16T18:57:10.580Z,33.60
2019-04-16T19:00:28.761Z,18.27
2019-04-16T19:03:34.043Z,9.73
2019-04-16T19:06:37.939Z,13.00
2019-04-16T19:09:41.598Z,18.13
2019-04-16T19:12:45.510Z,90.43
2019-04-16T19:15:49.136Z,87.90
2019-04-16T19:18:53.208Z,72.60
2019-04-16T19:21:57.513Z,69.20
2019-04-16T19:25:01.172Z,66.67
2019-04-16T19:28:06.934Z,65.43
2019-04-16T19:31:10.514Z,20.00
2019-04-16T19:34:14.084Z,17.13
2019-04-16T19:37:17.970Z,15.87
2019-04-16T19:40:21.550Z,12.33
2019-04-16T19:43:28.048Z,86.83
2019-04-16T19:46:30.453Z,126.87
2019-04-16T19:49:34.021Z,171.83
2019-04-16T19:52:37.607Z,169.33
2019-04-16T19:55:45.623Z,163.60
2019-04-16T19:58:48.028Z,156.83
2019-04-16T20:01:56.018Z,147.77
2019-04-16T20:04:57.677Z,145.70
2019-04-16T20:08:01.278Z,139.00
2019-04-16T20:11:04.952Z,129.53
2019-04-16T20:14:09.052Z,103.33
2019-04-16T20:17:12.935Z,100.33
2019-04-16T20:20:16.580Z,94.33
2019-04-16T20:23:20.160Z,91.07
2019-04-16T20:26:23.732Z,83.67
2019-04-16T20:29:27.318Z,87.97
2019-04-16T20:32:34.301Z,78.73
2019-04-16T20:35:36.255Z,87.07
2019-04-16T20:38:39.879Z,85.20
2019-04-16T20:41:43.444Z,78.97
2019-04-16T20:44:47.044Z,77.63
2019-04-16T20:47:50.718Z,40.97
2019-04-16T20:50:58.770Z,42.20
2019-04-16T20:53:59.602Z,349.03
2019-04-16T20:57:03.457Z,128.70
2019-04-16T21:00:10.778Z,128.50
2019-04-16T21:03:21.833Z,56.63
2019-04-16T21:06:18.845Z,44.57
2019-04-16T21:09:22.468Z,187.80
2019-04-16T21:12:26.312Z,122.03
2019-04-16T21:15:29.909Z,133.43
2019-04-16T21:18:33.489Z,135.07
2019-04-16T21:21:38.746Z,122.60
2019-04-16T21:24:42.313Z,123.50
2019-04-16T21:27:57.945Z,119.23
2019-04-16T21:31:06.178Z,116.47
2019-04-16T21:34:17.600Z,122.70
2019-04-16T21:37:28.279Z,169.93
2019-04-16T21:40:32.107Z,103.20
2019-04-16T21:43:39.488Z,94.87
2019-04-16T21:46:41.247Z,84.63
2019-04-16T21:49:45.970Z,79.93
2019-04-16T21:52:52.343Z,78.03
2019-04-16T21:55:55.417Z,85.37
2019-04-16T21:58:59.193Z,72.40
2019-04-16T22:02:06.433Z,69.67
2019-04-16T22:05:11.049Z,65.90
2019-04-16T22:08:14.613Z,72.53
2019-04-16T22:11:18.193Z,66.87
2019-04-16T22:14:22.886Z,62.10
2019-04-16T22:17:26.532Z,59.10
2019-04-16T22:20:31.754Z,62.33
2019-04-16T22:23:35.559Z,58.67
2019-04-16T22:26:39.339Z,60.23
2019-04-16T22:29:47.216Z,53.90
2019-04-16T22:32:48.232Z,52.97
2019-04-16T22:35:52.227Z,52.27
2019-04-16T22:39:01.508Z,49.73
2019-04-16T22:42:12.164Z,54.47
2019-04-16T22:45:31.585Z,50.13
2019-04-16T22:48:35.237Z,50.80
2019-04-16T22:51:43.201Z,48.00
2019-04-16T22:54:46.546Z,52.73
2019-04-16T22:57:50.139Z,47.00
2019-04-16T23:00:57.580Z,44.00
2019-04-16T23:04:01.204Z,46.70
2019-04-16T23:07:07.096Z,44.30
2019-04-16T23:10:10.264Z,44.90
2019-04-16T23:13:14.165Z,40.67
2019-04-16T23:16:17.748Z,45.47
2019-04-16T23:19:21.348Z,44.37
2019-04-16T23:22:24.940Z,40.77
2019-04-16T23:25:28.507Z,43.23
2019-04-16T23:28:32.464Z,38.47
2019-04-16T23:31:36.083Z,35.10
2019-04-16T23:34:39.681Z,36.87
2019-04-16T23:37:43.566Z,42.77
2019-04-16T23:40:47.172Z,36.40
2019-04-16T23:44:10.135Z,31.40
2019-04-16T23:47:51.385Z,35.20
2019-04-16T23:51:02.960Z,34.43
2019-04-16T23:54:23.171Z,37.33
2019-04-16T23:57:36.035Z,33.10
